Time;durP1;ratioP1;P1;durP2;ratioP2;P2;SDS_P1;SDS_P2;PMS_P1;PMS_P2;Temp;Humidity;BMP_temperature;BMP_pressure;BME280_temperature;BME280_humidity;BME280_pressure;Samples;Min_cycle;Max_cycle;Signal;HPM_P1;HPM_P2
2023/08/29 00:00:32;;;;;;;11.85;8.10;;;;;;;-148.15;100.00;61821.78;4975398;28;20089;-88
2023/08/29 00:03:03;;;;;;;10.33;8.17;;;;;;;-148.15;100.00;61821.78;4976242;28;20019;-88
2023/08/29 00:12:15;;;;;;;8.73;7.80;;;;;;;-148.15;100.00;61821.78;4993336;23;20515;-88
2023/08/29 00:14:41;;;;;;;9.97;7.73;;;;;;;-148.15;100.00;61821.78;5000828;28;20050;-87
2023/08/29 00:17:09;;;;;;;10.37;8.10;;;;;;;-148.15;100.00;61821.78;5004404;28;20081;-87
2023/08/29 00:19:34;;;;;;;9.88;7.88;;;;;;;-148.15;100.00;61821.78;4987734;28;20042;-88
2023/08/29 00:22:01;;;;;;;11.50;8.87;;;;;;;-148.15;100.00;61821.78;4984522;28;20030;-88
2023/08/29 00:24:28;;;;;;;10.52;8.18;;;;;;;-148.15;100.00;61821.78;4983636;28;20035;-88
2023/08/29 00:26:53;;;;;;;11.73;8.57;;;;;;;-148.15;100.00;61821.78;4982736;28;20541;-88
2023/08/29 00:29:19;;;;;;;13.20;7.90;;;;;;;-148.15;100.00;61821.78;4992344;28;20030;-88
2023/08/29 00:31:44;;;;;;;11.33;7.43;;;;;;;-148.15;100.00;61821.78;4955127;28;20081;-88
2023/08/29 00:34:09;;;;;;;15.87;8.00;;;;;;;-148.15;100.00;61821.78;4972364;28;20278;-88
2023/08/29 00:36:35;;;;;;;10.50;8.03;;;;;;;-148.15;100.00;61821.78;4972010;28;20019;-88
2023/08/29 00:39:00;;;;;;;12.07;8.07;;;;;;;-148.15;100.00;61821.78;4972053;28;20060;-88
2023/08/29 00:41:25;;;;;;;10.80;7.60;;;;;;;-148.15;100.00;61821.78;4972121;28;20031;-88
2023/08/29 00:43:51;;;;;;;8.90;7.27;;;;;;;-148.15;100.00;61821.78;4972237;28;20372;-88
2023/08/29 00:46:16;;;;;;;10.70;7.83;;;;;;;-148.15;100.00;61821.78;4972747;28;20490;-88
2023/08/29 00:48:43;;;;;;;9.98;7.30;;;;;;;-148.15;100.00;61821.78;4954739;28;20023;-88
2023/08/29 00:51:09;;;;;;;10.48;7.68;;;;;;;-148.15;100.00;61821.78;4973024;28;20086;-88
2023/08/29 00:53:35;;;;;;;11.20;7.43;;;;;;;-148.15;100.00;61821.78;4972004;28;20069;-88
2023/08/29 00:56:01;;;;;;;10.20;7.70;;;;;;;-148.15;100.00;61821.78;4954782;28;20034;-88
2023/08/29 00:58:27;;;;;;;8.15;7.25;;;;;;;-148.15;100.00;61821.78;4974947;28;20033;-88
2023/08/29 01:00:53;;;;;;;8.95;7.32;;;;;;;-148.15;100.00;61821.78;4985245;28;20393;-88
2023/08/29 01:03:18;;;;;;;10.73;7.60;;;;;;;-148.15;100.00;61821.78;4969858;28;20690;-88
2023/08/29 01:05:45;;;;;;;9.50;7.10;;;;;;;-148.15;100.00;61821.78;4971563;28;20018;-88
2023/08/29 01:08:10;;;;;;;8.25;6.93;;;;;;;-148.15;100.00;61821.78;4972955;28;20078;-88
2023/08/29 01:11:03;;;;;;;10.43;7.40;;;;;;;-148.15;100.00;61821.78;4976104;28;20041;-88
2023/08/29 01:13:47;;;;;;;8.47;6.83;;;;;;;-148.15;100.00;61821.78;4964703;28;20398;-88
2023/08/29 01:16:16;;;;;;;11.33;7.27;;;;;;;-148.15;100.00;61821.78;4971022;28;20297;-88
2023/08/29 01:18:43;;;;;;;11.95;7.57;;;;;;;-148.15;100.00;61821.78;4971177;28;20054;-88
2023/08/29 01:21:30;;;;;;;9.52;7.38;;;;;;;-148.15;100.00;61821.78;4971736;28;20034;-88
2023/08/29 01:24:10;;;;;;;11.07;7.10;;;;;;;-148.15;100.00;61821.78;4971382;28;20053;-89
2023/08/29 01:26:36;;;;;;;14.13;7.20;;;;;;;-148.15;100.00;61821.78;4964341;28;20471;-89
2023/08/29 01:29:03;;;;;;;8.90;7.18;;;;;;;-148.15;100.00;61821.78;4974807;28;20386;-88
2023/08/29 01:31:30;;;;;;;10.93;7.85;;;;;;;-148.15;100.00;61821.78;4971142;28;20019;-88
2023/08/29 01:33:57;;;;;;;9.65;7.60;;;;;;;-148.15;100.00;61821.78;4973134;28;20027;-88
2023/08/29 01:36:26;;;;;;;11.30;7.47;;;;;;;-148.15;100.00;61821.78;4971858;28;20569;-89
2023/08/29 01:38:52;;;;;;;9.80;7.30;;;;;;;-148.15;100.00;61821.78;4971855;28;20445;-87
2023/08/29 01:41:17;;;;;;;11.18;8.30;;;;;;;-148.15;100.00;61821.78;4972007;28;20118;-88
2023/08/29 01:43:43;;;;;;;9.90;7.40;;;;;;;-148.15;100.00;61821.78;4972612;28;20030;-88
2023/08/29 01:46:09;;;;;;;11.03;7.97;;;;;;;-148.15;100.00;61821.78;4973662;28;20030;-88
2023/08/29 01:48:35;;;;;;;13.07;7.67;;;;;;;-148.15;100.00;61821.78;4973126;28;20306;-89
2023/08/29 01:51:00;;;;;;;9.57;7.03;;;;;;;-148.15;100.00;61821.78;4973401;28;20676;-89
2023/08/29 01:53:26;;;;;;;12.60;7.20;;;;;;;-148.15;100.00;61821.78;4971881;28;20537;-89
2023/08/29 01:55:52;;;;;;;12.90;7.03;;;;;;;-148.15;100.00;61821.78;4971958;28;20077;-88
2023/08/29 01:58:20;;;;;;;9.90;7.68;;;;;;;-148.15;100.00;61821.78;4977234;28;20050;-88
2023/08/29 02:00:46;;;;;;;12.05;8.23;;;;;;;-148.15;100.00;61821.78;4974148;28;20019;-89
2023/08/29 02:03:11;;;;;;;9.93;7.77;;;;;;;-148.15;100.00;61821.78;4973821;28;20082;-88
2023/08/29 02:05:36;;;;;;;10.87;7.83;;;;;;;-148.15;100.00;61821.78;4970218;28;20298;-88
2023/08/29 02:08:02;;;;;;;14.80;8.50;;;;;;;-148.15;100.00;61821.78;4970190;28;20049;-88
2023/08/29 02:10:29;;;;;;;11.67;8.17;;;;;;;-148.15;100.00;61821.78;4969601;28;20085;-88
2023/08/29 02:12:54;;;;;;;10.02;7.25;;;;;;;-148.15;100.00;61821.78;4970090;28;20030;-88
2023/08/29 02:15:20;;;;;;;12.17;8.00;;;;;;;-148.15;100.00;61821.78;4970981;28;20041;-89
2023/08/29 02:17:46;;;;;;;12.73;7.55;;;;;;;-148.15;100.00;61821.78;4969665;28;20096;-88
2023/08/29 02:20:11;;;;;;;12.60;8.50;;;;;;;-148.15;100.00;61821.78;4970636;28;20427;-88
2023/08/29 02:22:37;;;;;;;10.13;7.87;;;;;;;-148.15;100.00;61821.78;4975346;28;20091;-89
2023/08/29 02:25:04;;;;;;;10.23;7.22;;;;;;;-148.15;100.00;61821.78;4971385;28;20398;-88
2023/08/29 02:27:32;;;;;;;13.60;8.20;;;;;;;-148.15;100.00;61821.78;4970204;28;20030;-88
2023/08/29 02:29:57;;;;;;;9.93;7.73;;;;;;;-148.15;100.00;61821.78;4970167;28;20766;-88
2023/08/29 02:32:22;;;;;;;12.07;8.57;;;;;;;-148.15;100.00;61821.78;4970645;28;20034;-88
2023/08/29 02:34:48;;;;;;;11.53;8.57;;;;;;;-148.15;100.00;61821.78;4970016;28;20110;-88
2023/08/29 02:37:15;;;;;;;13.67;7.83;;;;;;;-148.15;100.00;61821.78;4969806;28;20081;-89
2023/08/29 02:39:41;;;;;;;10.65;7.70;;;;;;;-148.15;100.00;61821.78;4970113;28;20026;-88
2023/08/29 02:42:07;;;;;;;13.50;8.15;;;;;;;-148.15;100.00;61821.78;4970119;28;20510;-89
2023/08/29 02:44:32;;;;;;;11.07;7.40;;;;;;;-148.15;100.00;61821.78;4970761;28;20165;-89
2023/08/29 02:46:57;;;;;;;11.77;7.87;;;;;;;-148.15;100.00;61821.78;4969419;28;20390;-88
2023/08/29 02:49:22;;;;;;;12.40;7.50;;;;;;;-148.15;100.00;61821.78;4976053;28;20027;-88
2023/08/29 02:51:48;;;;;;;11.77;7.43;;;;;;;-148.15;100.00;61821.78;4969693;28;20027;-89
2023/08/29 02:54:13;;;;;;;10.52;7.20;;;;;;;-148.15;100.00;61821.78;4970939;28;20035;-88
2023/08/29 02:56:38;;;;;;;9.07;7.07;;;;;;;-148.15;100.00;61821.78;4971895;28;20121;-88
2023/08/29 02:59:04;;;;;;;13.20;8.40;;;;;;;-148.15;100.00;61821.78;4970282;28;20034;-89
2023/08/29 03:01:29;;;;;;;13.20;7.83;;;;;;;-148.15;100.00;61821.78;4952889;28;20026;-88
2023/08/29 03:03:54;;;;;;;10.77;7.47;;;;;;;-148.15;100.00;61821.78;4972024;28;20382;-89
2023/08/29 03:06:21;;;;;;;11.00;8.07;;;;;;;-148.15;100.00;61821.78;4973418;28;20027;-88
2023/08/29 03:08:46;;;;;;;11.10;7.63;;;;;;;-148.15;100.00;61821.78;4974057;28;20031;-88
2023/08/29 03:11:12;;;;;;;15.27;8.00;;;;;;;-148.15;100.00;61821.78;4973656;28;20571;-88
2023/08/29 03:13:37;;;;;;;12.00;6.97;;;;;;;-148.15;100.00;61821.78;4973739;28;20286;-89
2023/08/29 03:16:13;;;;;;;11.40;7.03;;;;;;;-148.15;100.00;61821.78;4973108;28;20539;-88
2023/08/29 03:18:38;;;;;;;9.95;7.63;;;;;;;-148.15;100.00;61821.78;4973127;28;20050;-88
2023/08/29 03:21:07;;;;;;;10.17;7.77;;;;;;;-148.15;100.00;61821.78;4973705;28;20088;-88
2023/08/29 03:23:34;;;;;;;10.85;7.15;;;;;;;-148.15;100.00;61821.78;4974159;28;20030;-89
2023/08/29 03:26:07;;;;;;;11.05;7.40;;;;;;;-148.15;100.00;61821.78;4956133;28;20108;-89
2023/08/29 03:28:34;;;;;;;8.38;6.72;;;;;;;-148.15;100.00;61821.78;4973866;28;20035;-88
2023/08/29 03:31:13;;;;;;;13.98;7.07;;;;;;;-148.15;100.00;61821.78;4956611;28;20031;-88
2023/08/29 03:33:39;;;;;;;10.80;6.97;;;;;;;-148.15;100.00;61821.78;4967559;28;20030;-88
2023/08/29 03:36:05;;;;;;;13.07;7.60;;;;;;;-148.15;100.00;61821.78;4973203;28;20290;-88
2023/08/29 03:38:33;;;;;;;10.00;7.40;;;;;;;-148.15;100.00;61821.78;4965811;28;20034;-88
2023/08/29 03:40:59;;;;;;;9.68;6.90;;;;;;;-148.15;100.00;61821.78;4973858;28;20062;-89
2023/08/29 03:43:27;;;;;;;11.38;7.65;;;;;;;-148.15;100.00;61821.78;4973336;28;20073;-89
2023/08/29 03:46:07;;;;;;;11.90;8.37;;;;;;;-148.15;100.00;61821.78;4973261;28;20034;-89
2023/08/29 03:48:33;;;;;;;12.23;8.02;;;;;;;-148.15;100.00;61821.78;4973183;28;20073;-88
2023/08/29 03:51:02;;;;;;;9.73;7.43;;;;;;;-148.15;100.00;61821.78;4973380;28;20111;-89
2023/08/29 03:53:27;;;;;;;9.52;7.15;;;;;;;-148.15;100.00;61821.78;4972860;28;20039;-88
2023/08/29 03:55:53;;;;;;;9.93;7.87;;;;;;;-148.15;100.00;61821.78;4972655;28;20035;-89
2023/08/29 03:58:18;;;;;;;14.13;7.90;;;;;;;-148.15;100.00;61821.78;4972370;28;20760;-88
2023/08/29 04:00:44;;;;;;;10.02;7.90;;;;;;;-148.15;100.00;61821.78;4972739;28;20030;-89
2023/08/29 04:03:09;;;;;;;9.90;7.50;;;;;;;-148.15;100.00;61821.78;4972886;28;20049;-88
2023/08/29 04:05:36;;;;;;;27.75;8.70;;;;;;;-148.15;100.00;61821.78;4972267;28;20073;-88
2023/08/29 04:08:02;;;;;;;9.23;6.80;;;;;;;-148.15;100.00;61821.78;4972735;28;20554;-88
2023/08/29 04:10:28;;;;;;;12.57;7.70;;;;;;;-148.15;100.00;61821.78;4975303;28;20719;-89
2023/08/29 04:12:54;;;;;;;10.37;7.40;;;;;;;-148.15;100.00;61821.78;4972201;28;20317;-88
2023/08/29 04:15:19;;;;;;;10.03;6.93;;;;;;;-148.15;100.00;61821.78;4971850;28;20023;-88
2023/08/29 04:17:44;;;;;;;9.43;7.40;;;;;;;-148.15;100.00;61821.78;4974469;28;20039;-88
2023/08/29 04:20:12;;;;;;;11.53;7.67;;;;;;;-148.15;100.00;61821.78;4973549;28;20333;-89
2023/08/29 04:22:38;;;;;;;17.15;7.68;;;;;;;-148.15;100.00;61821.78;4972028;28;20027;-89
2023/08/29 04:25:06;;;;;;;16.27;9.20;;;;;;;-148.15;100.00;61821.78;4973076;28;20037;-89
2023/08/29 04:27:32;;;;;;;25.80;10.77;;;;;;;-148.15;100.00;61821.78;4971532;28;20027;-89
2023/08/29 04:29:57;;;;;;;24.07;10.10;;;;;;;-148.15;100.00;61821.78;4973029;28;20301;-89
2023/08/29 04:32:23;;;;;;;39.13;11.10;;;;;;;-148.15;100.00;61821.78;4972371;28;20041;-90
2023/08/29 04:34:49;;;;;;;48.67;11.68;;;;;;;-148.15;100.00;61821.78;4972678;28;20035;-90
2023/08/29 04:37:16;;;;;;;23.90;11.47;;;;;;;-148.15;100.00;61821.78;4971475;28;20085;-89
2023/08/29 04:39:42;;;;;;;24.02;11.65;;;;;;;-148.15;100.00;61821.78;4971746;28;20030;-90
2023/08/29 04:42:07;;;;;;;28.27;11.57;;;;;;;-148.15;100.00;61821.78;4954753;28;20065;-89
2023/08/29 04:44:33;;;;;;;25.20;10.63;;;;;;;-148.15;100.00;61821.78;4972915;28;20361;-89
2023/08/29 04:46:59;;;;;;;25.00;10.77;;;;;;;-148.15;100.00;61821.78;4971270;28;20038;-89
2023/08/29 04:49:24;;;;;;;27.50;11.10;;;;;;;-148.15;100.00;61821.78;4972653;28;20190;-89
2023/08/29 04:51:50;;;;;;;16.63;10.18;;;;;;;-148.15;100.00;61821.78;4971809;28;20106;-90
2023/08/29 04:54:15;;;;;;;17.67;9.93;;;;;;;-148.15;100.00;61821.78;4972600;28;20098;-89
2023/08/29 04:56:40;;;;;;;16.53;10.47;;;;;;;-148.15;100.00;61821.78;4971207;28;20027;-89
2023/08/29 04:59:05;;;;;;;16.07;10.10;;;;;;;-148.15;100.00;61821.78;4972372;28;20109;-89
2023/08/29 05:01:31;;;;;;;16.80;10.03;;;;;;;-148.15;100.00;61821.78;4972124;28;20035;-89
2023/08/29 05:03:56;;;;;;;20.47;10.33;;;;;;;-148.15;100.00;61821.78;4973020;28;20106;-89
2023/08/29 05:06:22;;;;;;;19.17;10.30;;;;;;;-148.15;100.00;61821.78;4974005;28;20452;-89
2023/08/29 05:08:47;;;;;;;20.97;10.77;;;;;;;-148.15;100.00;61821.78;4955795;28;20289;-89
2023/08/29 05:11:13;;;;;;;24.83;10.93;;;;;;;-148.15;100.00;61821.78;4972942;28;20110;-89
2023/08/29 05:13:38;;;;;;;19.90;10.60;;;;;;;-148.15;100.00;61821.78;4973614;28;20026;-89
2023/08/29 05:16:03;;;;;;;18.25;9.93;;;;;;;-148.15;100.00;61821.78;4972774;28;20023;-89
2023/08/29 05:18:29;;;;;;;19.93;10.10;;;;;;;-148.15;100.00;61821.78;4973645;28;20508;-89
2023/08/29 05:20:56;;;;;;;22.67;11.80;;;;;;;-148.15;100.00;61821.78;4970403;28;20073;-89
2023/08/29 05:23:22;;;;;;;21.85;12.88;;;;;;;-148.15;100.00;61821.78;4954098;28;20054;-89
2023/08/29 05:25:47;;;;;;;21.08;12.18;;;;;;;-148.15;100.00;61821.78;4970005;28;20479;-89
2023/08/29 05:28:12;;;;;;;22.57;11.87;;;;;;;-148.15;100.00;61821.78;4971232;28;20046;-89
2023/08/29 05:30:38;;;;;;;23.67;12.63;;;;;;;-148.15;100.00;61821.78;4953632;28;20478;-90
2023/08/29 05:33:05;;;;;;;24.33;12.43;;;;;;;-148.15;100.00;61821.78;4977878;28;21010;-88
2023/08/29 05:35:31;;;;;;;23.08;12.55;;;;;;;-148.15;100.00;61821.78;4955350;28;20041;-91
2023/08/29 05:37:56;;;;;;;26.43;12.37;;;;;;;-148.15;100.00;61821.78;4941785;28;20061;-91
2023/08/29 05:40:21;;;;;;;22.20;12.50;;;;;;;-148.15;100.00;61821.78;4974666;28;21042;-91
2023/08/29 05:42:47;;;;;;;25.70;12.73;;;;;;;-148.15;100.00;61821.78;4954856;28;20025;-90
2023/08/29 05:45:12;;;;;;;23.20;13.10;;;;;;;-148.15;100.00;61821.78;4973313;28;20023;-91
2023/08/29 05:47:37;;;;;;;23.30;12.57;;;;;;;-148.15;100.00;61821.78;4972077;28;20462;-91
2023/08/29 05:50:04;;;;;;;25.95;13.70;;;;;;;-148.15;100.00;61821.78;4971125;28;20625;-91
2023/08/29 05:52:29;;;;;;;23.90;13.60;;;;;;;-148.15;100.00;61821.78;4971236;28;20063;-90
2023/08/29 05:54:55;;;;;;;24.23;13.90;;;;;;;-148.15;100.00;61821.78;4970656;28;20306;-90
2023/08/29 05:57:21;;;;;;;24.15;12.90;;;;;;;-148.15;100.00;61821.78;4953402;28;20030;-91
2023/08/29 05:59:46;;;;;;;23.27;13.33;;;;;;;-148.15;100.00;61821.78;4971542;28;20018;-90
2023/08/29 06:02:11;;;;;;;21.27;13.77;;;;;;;-148.15;100.00;61821.78;4971367;28;20652;-91
2023/08/29 06:04:37;;;;;;;25.17;14.53;;;;;;;-148.15;100.00;61821.78;4970811;28;20058;-90
2023/08/29 06:07:03;;;;;;;20.95;13.40;;;;;;;-148.15;100.00;61821.78;4970320;28;20050;-91
2023/08/29 06:09:28;;;;;;;26.07;14.63;;;;;;;-148.15;100.00;61821.78;4970485;28;20019;-91
2023/08/29 06:11:53;;;;;;;22.63;14.40;;;;;;;-148.15;100.00;61821.78;4934806;28;1058386;-92
2023/08/29 06:14:19;;;;;;;24.47;15.07;;;;;;;-148.15;100.00;61821.78;4972048;28;20531;-92
2023/08/29 06:16:44;;;;;;;23.27;15.20;;;;;;;-148.15;100.00;61821.78;4971711;28;20730;-92
2023/08/29 06:19:09;;;;;;;23.50;15.27;;;;;;;-148.15;100.00;61821.78;4971315;28;20037;-91
2023/08/29 06:21:35;;;;;;;27.67;18.37;;;;;;;-148.15;100.00;61821.78;4971198;28;20049;-92
2023/08/29 06:24:00;;;;;;;27.37;18.60;;;;;;;-148.15;100.00;61821.78;4971565;28;20031;-92
2023/08/29 06:26:25;;;;;;;30.73;18.47;;;;;;;-148.15;100.00;61821.78;4971198;28;20039;-92
2023/08/29 06:28:51;;;;;;;26.80;19.17;;;;;;;-148.15;100.00;61821.78;4970736;28;20289;-92
2023/08/29 06:31:16;;;;;;;24.87;17.17;;;;;;;-148.15;100.00;61821.78;4971196;28;20059;-92
2023/08/29 06:33:41;;;;;;;28.00;19.33;;;;;;;-148.15;100.00;61821.78;4971003;28;20035;-91
2023/08/29 06:36:07;;;;;;;27.77;17.27;;;;;;;-148.15;100.00;61821.78;4971078;28;20491;-92
2023/08/29 06:38:34;;;;;;;26.55;17.85;;;;;;;-148.15;100.00;61821.78;4975303;28;20608;-92
2023/08/29 06:40:59;;;;;;;24.08;17.38;;;;;;;-148.15;100.00;61821.78;4975596;28;20030;-91
2023/08/29 06:43:25;;;;;;;23.33;16.70;;;;;;;-148.15;100.00;61821.78;4975342;28;20027;-92
2023/08/29 06:45:51;;;;;;;28.13;17.77;;;;;;;-148.15;100.00;61821.78;4974534;28;20027;-91
2023/08/29 06:48:17;;;;;;;27.40;19.57;;;;;;;-148.15;100.00;61821.78;4974894;28;20619;-92
2023/08/29 06:50:42;;;;;;;25.53;18.03;;;;;;;-148.15;100.00;61821.78;4974811;28;20031;-92
2023/08/29 06:53:08;;;;;;;25.87;18.67;;;;;;;-148.15;100.00;61821.78;4987263;28;20317;-92
2023/08/29 06:55:34;;;;;;;23.77;16.07;;;;;;;-148.15;100.00;61821.78;4987813;28;20027;-92
2023/08/29 06:58:01;;;;;;;21.98;16.38;;;;;;;-148.15;100.00;61821.78;4976736;28;20113;-92
2023/08/29 07:00:26;;;;;;;23.98;16.23;;;;;;;-148.15;100.00;61821.78;4985209;28;20030;-92
2023/08/29 07:02:52;;;;;;;19.90;13.33;;;;;;;-148.15;100.00;61821.78;4982389;28;20023;-92
2023/08/29 07:05:17;;;;;;;19.48;14.23;;;;;;;-148.15;100.00;61821.78;4975514;28;20045;-92
2023/08/29 07:07:43;;;;;;;17.87;13.33;;;;;;;-148.15;100.00;61821.78;4974425;28;20035;-92
2023/08/29 07:10:09;;;;;;;16.87;13.03;;;;;;;-148.15;100.00;61821.78;4957278;28;20089;-92
2023/08/29 07:12:35;;;;;;;16.90;12.27;;;;;;;-148.15;100.00;61821.78;4975050;28;20278;-92
2023/08/29 07:15:03;;;;;;;15.55;11.60;;;;;;;-148.15;100.00;61821.78;4974926;28;20022;-91
2023/08/29 07:17:29;;;;;;;15.15;10.98;;;;;;;-148.15;100.00;61821.78;4974856;28;20023;-92
2023/08/29 07:19:54;;;;;;;15.03;11.40;;;;;;;-148.15;100.00;61821.78;4957091;28;20031;-92
2023/08/29 07:22:20;;;;;;;14.73;10.80;;;;;;;-148.15;100.00;61821.78;4975220;28;20297;-92
2023/08/29 07:24:45;;;;;;;13.73;10.60;;;;;;;-148.15;100.00;61821.78;4974676;28;20031;-92
2023/08/29 07:27:11;;;;;;;11.83;9.60;;;;;;;-148.15;100.00;61821.78;4975040;28;20037;-92
2023/08/29 07:29:36;;;;;;;14.57;10.50;;;;;;;-148.15;100.00;61821.78;4974516;28;20027;-92
2023/08/29 07:32:01;;;;;;;14.00;11.00;;;;;;;-148.15;100.00;61821.78;4975130;28;20563;-93
2023/08/29 07:34:27;;;;;;;15.53;11.87;;;;;;;-148.15;100.00;61821.78;4975566;28;20479;-92
2023/08/29 07:36:52;;;;;;;17.98;12.70;;;;;;;-148.15;100.00;61821.78;4977471;28;20498;-93
2023/08/29 07:39:19;;;;;;;13.10;11.13;;;;;;;-148.15;100.00;61821.78;4962671;28;20030;-92
2023/08/29 07:41:45;;;;;;;14.20;11.85;;;;;;;-148.15;100.00;61821.78;4981612;28;20029;-92
2023/08/29 07:44:10;;;;;;;15.85;10.55;;;;;;;-148.15;100.00;61821.78;4982002;28;20066;-91
2023/08/29 07:46:36;;;;;;;13.07;11.07;;;;;;;-148.15;100.00;61821.78;4978520;28;20054;-92
2023/08/29 07:49:01;;;;;;;11.87;9.40;;;;;;;-148.15;100.00;61821.78;4977004;28;20038;-88
2023/08/29 07:51:27;;;;;;;12.27;10.23;;;;;;;-148.15;100.00;61821.78;4979759;28;20026;-91
2023/08/29 07:53:52;;;;;;;13.98;9.10;;;;;;;-148.15;100.00;61821.78;4989715;28;20042;-91
2023/08/29 07:56:17;;;;;;;14.33;9.07;;;;;;;-148.15;100.00;61821.78;4988375;28;20034;-91
2023/08/29 07:58:43;;;;;;;10.87;9.63;;;;;;;-148.15;100.00;61821.78;4988689;28;20037;-91
2023/08/29 08:01:08;;;;;;;11.43;8.60;;;;;;;-148.15;100.00;61821.78;4988563;28;20019;-91
2023/08/29 08:03:34;;;;;;;8.93;7.73;;;;;;;-148.15;100.00;61821.78;4985673;28;20322;-92
2023/08/29 08:06:00;;;;;;;8.73;7.80;;;;;;;-148.15;100.00;61821.78;4982589;28;20046;-90
2023/08/29 08:08:25;;;;;;;11.10;8.55;;;;;;;-148.15;100.00;61821.78;4980926;28;20487;-92
2023/08/29 08:10:50;;;;;;;7.80;7.00;;;;;;;-148.15;100.00;61821.78;4985287;28;20035;-92
2023/08/29 08:13:16;;;;;;;10.93;7.23;;;;;;;-148.15;100.00;61821.78;4968023;28;20086;-92
2023/08/29 08:15:41;;;;;;;9.65;7.80;;;;;;;-148.15;100.00;61821.78;4991456;28;20034;-92
2023/08/29 08:18:08;;;;;;;9.47;7.33;;;;;;;-148.15;100.00;61821.78;4989802;28;20042;-91
2023/08/29 08:20:33;;;;;;;8.88;6.97;;;;;;;-148.15;100.00;61821.78;4962118;28;20157;-91
2023/08/29 08:22:59;;;;;;;7.10;6.40;;;;;;;-148.15;100.00;61821.78;4993119;28;20058;-92
2023/08/29 08:25:24;;;;;;;8.75;6.35;;;;;;;-148.15;100.00;61821.78;4975343;28;20439;-92
2023/08/29 08:27:51;;;;;;;6.93;5.40;;;;;;;-148.15;100.00;61821.78;4973412;28;20039;-92
2023/08/29 08:30:16;;;;;;;7.65;5.40;;;;;;;-148.15;100.00;61821.78;4974033;28;20038;-92
2023/08/29 08:32:43;;;;;;;8.93;5.47;;;;;;;-148.15;100.00;61821.78;4973845;28;20486;-92
2023/08/29 08:35:09;;;;;;;10.73;6.07;;;;;;;-148.15;100.00;61821.78;4956712;28;20478;-91
2023/08/29 08:37:35;;;;;;;10.13;6.72;;;;;;;-148.15;100.00;61821.78;4972709;28;20027;-91
2023/08/29 08:40:01;;;;;;;6.82;5.40;;;;;;;-148.15;100.00;61821.78;4973340;28;20061;-91
2023/08/29 08:42:29;;;;;;;7.60;5.53;;;;;;;-148.15;100.00;61821.78;4973021;28;20086;-90
2023/08/29 08:44:55;;;;;;;7.65;5.55;;;;;;;-148.15;100.00;61821.78;4972728;28;20122;-90
2023/08/29 08:47:21;;;;;;;6.85;5.38;;;;;;;-148.15;100.00;61821.78;4972325;28;20438;-91
2023/08/29 08:49:47;;;;;;;9.15;5.75;;;;;;;-148.15;100.00;61821.78;4972826;28;20085;-91
2023/08/29 08:52:12;;;;;;;5.20;4.73;;;;;;;-148.15;100.00;61821.78;4972702;28;20027;-91
2023/08/29 08:54:39;;;;;;;7.80;5.43;;;;;;;-148.15;100.00;61821.78;4972693;28;20086;-92
2023/08/29 08:57:04;;;;;;;4.63;4.20;;;;;;;-148.15;100.00;61821.78;4954874;28;20018;-91
2023/08/29 08:59:29;;;;;;;5.27;4.60;;;;;;;-148.15;100.00;61821.78;4972691;28;20769;-91
2023/08/29 09:01:58;;;;;;;5.43;4.63;;;;;;;-148.15;100.00;61821.78;4971820;28;20046;-92
2023/08/29 09:04:24;;;;;;;6.55;4.60;;;;;;;-148.15;100.00;61821.78;4972901;28;20109;-92
2023/08/29 09:06:49;;;;;;;4.93;4.28;;;;;;;-148.15;100.00;61821.78;4971800;28;20034;-91
2023/08/29 09:09:20;;;;;;;6.43;4.27;;;;;;;-148.15;100.00;61821.78;4973590;28;20035;-91
2023/08/29 09:11:53;;;;;;;4.90;4.40;;;;;;;-148.15;100.00;61821.78;4973021;28;20031;-91
2023/08/29 09:14:20;;;;;;;6.07;4.88;;;;;;;-148.15;100.00;61821.78;4972598;28;20015;-91
2023/08/29 09:16:45;;;;;;;10.13;5.50;;;;;;;-148.15;100.00;61821.78;4971306;28;20501;-91
2023/08/29 09:19:13;;;;;;;6.80;4.60;;;;;;;-148.15;100.00;61821.78;4972243;28;20310;-91
2023/08/29 09:21:42;;;;;;;4.78;3.83;;;;;;;-148.15;100.00;61821.78;4971930;28;20034;-91
2023/08/29 09:24:10;;;;;;;5.60;3.75;;;;;;;-148.15;100.00;61821.78;4972215;28;20031;-91
2023/08/29 09:26:38;;;;;;;5.67;4.00;;;;;;;-148.15;100.00;61821.78;4971479;28;20054;-91
2023/08/29 09:29:20;;;;;;;6.88;4.13;;;;;;;-148.15;100.00;61821.78;4972162;28;20117;-91
2023/08/29 09:31:48;;;;;;;6.90;4.18;;;;;;;-148.15;100.00;61821.78;4971557;28;20114;-91
2023/08/29 09:34:25;;;;;;;5.63;3.72;;;;;;;-148.15;100.00;61821.78;4972542;28;20027;-91
2023/08/29 09:36:50;;;;;;;6.97;3.30;;;;;;;-148.15;100.00;61821.78;4984143;28;20038;-91
2023/08/29 09:39:16;;;;;;;6.60;4.03;;;;;;;-148.15;100.00;61821.78;4957976;28;20035;-92
2023/08/29 09:41:41;;;;;;;6.73;3.40;;;;;;;-148.15;100.00;61821.78;4974449;28;20035;-91
2023/08/29 09:44:13;;;;;;;3.92;3.55;;;;;;;-148.15;100.00;61821.78;4967384;28;20069;-91
2023/08/29 09:46:44;;;;;;;4.80;3.65;;;;;;;-148.15;100.00;61821.78;4971712;28;20025;-92
2023/08/29 09:49:09;;;;;;;4.68;3.50;;;;;;;-148.15;100.00;61821.78;4971761;28;20089;-91
2023/08/29 09:51:36;;;;;;;4.53;3.17;;;;;;;-148.15;100.00;61821.78;4971628;28;20023;-91
2023/08/29 09:54:07;;;;;;;6.47;3.88;;;;;;;-148.15;100.00;61821.78;4971529;28;20019;-91
2023/08/29 09:56:34;;;;;;;4.68;3.65;;;;;;;-148.15;100.00;61821.78;4971178;28;20039;-91
2023/08/29 09:59:01;;;;;;;4.43;3.07;;;;;;;-148.15;100.00;61821.78;4971556;28;20089;-92
2023/08/29 10:01:27;;;;;;;5.13;3.17;;;;;;;-148.15;100.00;61821.78;4971701;28;20820;-91
2023/08/29 10:03:53;;;;;;;5.32;2.80;;;;;;;-148.15;100.00;61821.78;4971408;28;20140;-91
2023/08/29 10:06:19;;;;;;;3.47;2.80;;;;;;;-148.15;100.00;61821.78;4953764;28;20035;-91
2023/08/29 10:08:51;;;;;;;2.97;2.22;;;;;;;-148.15;100.00;61821.78;4971150;28;20170;-91
2023/08/29 10:11:19;;;;;;;3.83;2.20;;;;;;;-148.15;100.00;61821.78;4971532;28;20575;-91
2023/08/29 10:13:45;;;;;;;5.90;2.13;;;;;;;-148.15;100.00;61821.78;4971049;28;20039;-91
2023/08/29 10:16:12;;;;;;;2.83;2.30;;;;;;;-148.15;100.00;61821.78;4971305;28;20035;-91
2023/08/29 10:18:39;;;;;;;2.73;2.47;;;;;;;-148.15;100.00;61821.78;4970811;28;20038;-92
2023/08/29 10:21:05;;;;;;;3.47;1.90;;;;;;;-148.15;100.00;61821.78;4971478;28;20023;-91
2023/08/29 10:23:31;;;;;;;2.38;2.15;;;;;;;-148.15;100.00;61821.78;4971268;28;20387;-92
2023/08/29 10:25:58;;;;;;;2.13;1.92;;;;;;;-148.15;100.00;61821.78;4970756;28;20093;-92
2023/08/29 10:28:24;;;;;;;3.40;2.47;;;;;;;-148.15;100.00;61821.78;4971328;28;20033;-91
2023/08/29 10:30:54;;;;;;;5.17;2.47;;;;;;;-148.15;100.00;61821.78;4971381;28;20053;-92
2023/08/29 10:33:20;;;;;;;7.13;2.28;;;;;;;-148.15;100.00;61821.78;4971216;28;20371;-92
2023/08/29 10:35:49;;;;;;;2.38;1.80;;;;;;;-148.15;100.00;61821.78;4970613;28;20019;-92
2023/08/29 10:38:16;;;;;;;2.53;2.30;;;;;;;-148.15;100.00;61821.78;4970728;28;20113;-91
2023/08/29 10:40:43;;;;;;;2.95;1.98;;;;;;;-148.15;100.00;61821.78;4971043;28;20027;-91
2023/08/29 10:43:21;;;;;;;4.57;1.75;;;;;;;-148.15;100.00;61821.78;4970873;28;20082;-92
2023/08/29 10:45:57;;;;;;;2.87;1.53;;;;;;;-148.15;100.00;61821.78;4970711;28;20478;-92
2023/08/29 10:48:44;;;;;;;2.23;1.90;;;;;;;-148.15;100.00;61821.78;4954837;28;20302;-91
2023/08/29 10:51:14;;;;;;;3.95;1.63;;;;;;;-148.15;100.00;61821.78;4975789;28;20023;-91
2023/08/29 10:54:06;;;;;;;3.22;1.55;;;;;;;-148.15;100.00;61821.78;4971137;28;20035;-91
2023/08/29 10:56:43;;;;;;;2.08;1.40;;;;;;;-148.15;100.00;61821.78;4971860;28;20078;-91
2023/08/29 10:59:32;;;;;;;3.47;1.50;;;;;;;-148.15;100.00;61821.78;4982897;28;20018;-91
2023/08/29 11:02:27;;;;;;;1.80;1.30;;;;;;;-148.15;100.00;61821.78;4971343;28;20067;-92
2023/08/29 11:05:10;;;;;;;1.50;1.20;;;;;;;-148.15;100.00;61821.78;4976601;28;20298;-91
2023/08/29 11:07:36;;;;;;;2.83;1.10;;;;;;;-148.15;100.00;61821.78;4970780;28;20031;-92